Time;durP1;ratioP1;P1;durP2;ratioP2;P2;SDS_P1;SDS_P2;PMS_P1;PMS_P2;Temp;Humidity;BMP_temperature;BMP_pressure;BME280_temperature;BME280_humidity;BME280_pressure;Samples;Min_cycle;Max_cycle;Signal;HPM_P1;HPM_P2
2022/07/27 00:01:16;;;;;;;4.75;2.55;;;;;;;24.70;56.44;100357.91;2094070;28;20545;-77
2022/07/27 00:02:39;;;;;;;7.72;3.13;;;;;;;24.70;56.48;100360.63;2093774;28;20044;-78
2022/07/27 00:04:00;;;;;;;10.75;2.90;;;;;;;24.68;56.52;100363.38;2085780;28;20045;-77
2022/07/27 00:05:25;;;;;;;7.65;2.92;;;;;;;24.70;56.38;100360.63;2100572;28;20048;-77
2022/07/27 00:06:48;;;;;;;8.85;2.83;;;;;;;24.72;56.50;100358.72;2090813;28;20048;-77
2022/07/27 00:08:11;;;;;;;8.10;2.85;;;;;;;24.71;56.25;100354.28;2085694;28;20061;-77
2022/07/27 00:09:33;;;;;;;9.52;2.85;;;;;;;24.70;56.49;100366.91;2085911;28;20053;-77
2022/07/27 00:10:54;;;;;;;7.53;3.70;;;;;;;24.69;56.36;100358.88;2092313;28;20135;-77
2022/07/27 00:12:17;;;;;;;5.13;2.63;;;;;;;24.67;56.35;100356.25;2093247;28;20044;-77
2022/07/27 00:13:41;;;;;;;6.28;3.05;;;;;;;24.65;56.48;100354.56;2094252;28;20067;-77
2022/07/27 00:15:05;;;;;;;3.40;1.90;;;;;;;24.63;56.62;100362.75;2093335;28;20135;-77
2022/07/27 00:16:28;;;;;;;6.88;3.20;;;;;;;24.65;56.66;100354.56;2102465;28;20047;-77
2022/07/27 00:17:49;;;;;;;6.95;3.03;;;;;;;24.67;56.70;100353.56;2096702;28;20177;-77
2022/07/27 00:19:12;;;;;;;8.82;3.05;;;;;;;24.67;56.56;100364.38;2093425;28;20036;-77
2022/07/27 00:20:33;;;;;;;7.22;2.92;;;;;;;24.66;56.76;100373.41;2095166;28;20044;-77
2022/07/27 00:21:58;;;;;;;4.85;2.50;;;;;;;24.66;56.84;100364.44;2099999;28;20044;-76
2022/07/27 00:23:20;;;;;;;7.25;3.33;;;;;;;24.64;56.73;100361.78;2096607;28;20475;-76
2022/07/27 00:24:42;;;;;;;5.53;2.97;;;;;;;24.62;56.71;100363.69;2102301;28;20036;-77
2022/07/27 00:26:06;;;;;;;6.20;2.55;;;;;;;24.58;56.75;100362.97;2096437;28;20447;-77
2022/07/27 00:27:28;;;;;;;6.03;3.17;;;;;;;24.55;56.76;100359.53;2086267;28;20058;-77
2022/07/27 00:28:51;;;;;;;7.15;3.15;;;;;;;24.49;57.14;100365.22;2077478;28;20057;-77
2022/07/27 00:30:14;;;;;;;6.45;2.65;;;;;;;24.44;56.99;100367.28;2084257;28;20492;-77
2022/07/27 00:31:37;;;;;;;5.65;2.80;;;;;;;24.41;57.27;100372.84;2085454;28;20053;-77
2022/07/27 00:32:59;;;;;;;7.65;2.83;;;;;;;24.40;57.39;100366.56;2090642;28;20072;-76
2022/07/27 00:34:22;;;;;;;7.00;2.75;;;;;;;24.42;57.32;100375.44;2085922;28;20053;-77
2022/07/27 00:35:43;;;;;;;4.43;2.90;;;;;;;24.42;57.15;100370.03;2091203;28;20646;-77
2022/07/27 00:37:06;;;;;;;9.85;3.30;;;;;;;24.43;57.17;100371.81;2086028;28;20080;-78
2022/07/27 00:38:29;;;;;;;9.55;3.05;;;;;;;24.43;57.28;100371.81;2083037;28;20049;-77
2022/07/27 00:39:53;;;;;;;8.27;2.47;;;;;;;24.44;57.01;100373.56;2091603;28;20045;-77
2022/07/27 00:41:15;;;;;;;8.27;2.83;;;;;;;24.39;56.96;100375.59;2089346;28;20048;-77
2022/07/27 00:42:37;;;;;;;10.63;3.17;;;;;;;24.33;57.19;100369.63;2095913;28;20113;-78
2022/07/27 00:44:00;;;;;;;7.57;2.72;;;;;;;24.27;57.24;100367.22;2096421;28;20043;-77
2022/07/27 00:45:23;;;;;;;5.05;2.70;;;;;;;24.26;57.18;100362.75;2094327;28;20052;-77
2022/07/27 00:46:46;;;;;;;4.32;2.53;;;;;;;24.29;57.17;100362.59;2100909;28;20537;-76
2022/07/27 00:48:08;;;;;;;7.55;2.88;;;;;;;24.30;56.93;100365.22;2096835;28;20555;-79
2022/07/27 00:49:30;;;;;;;7.85;4.35;;;;;;;24.29;56.86;100360.78;2096415;28;20153;-77
2022/07/27 00:50:52;;;;;;;8.80;3.38;;;;;;;24.29;56.96;100359.91;2096713;28;20036;-78
2022/07/27 00:52:14;;;;;;;6.68;2.70;;;;;;;24.30;56.90;100364.34;2093963;28;20064;-78
2022/07/27 00:53:36;;;;;;;6.63;2.90;;;;;;;24.31;56.62;100360.72;2085780;28;20068;-78
2022/07/27 00:54:58;;;;;;;6.65;2.80;;;;;;;24.31;56.54;100361.59;2099877;28;20483;-77
2022/07/27 00:56:21;;;;;;;;;;;;;;;24.26;56.70;100368.16;2095719;28;20044;-78
2022/07/27 00:57:43;;;;;;;10.98;3.10;;;;;;;24.22;56.55;100362.00;2093689;28;19920;-77
2022/07/27 00:59:07;;;;;;;6.88;2.90;;;;;;;24.21;56.52;100360.28;2092091;28;20040;-78
2022/07/27 01:00:31;;;;;;;7.15;3.22;;;;;;;24.19;56.78;100362.19;2094160;28;20514;-78
2022/07/27 01:01:53;;;;;;;5.32;2.90;;;;;;;24.15;56.82;100365.94;2093551;28;20052;-78
2022/07/27 01:03:15;;;;;;;6.28;2.92;;;;;;;24.11;56.82;100361.63;2094003;28;20060;-77
2022/07/27 01:04:37;;;;;;;8.30;2.53;;;;;;;24.09;56.87;100364.38;2096227;28;20064;-79
2022/07/27 01:05:59;;;;;;;8.13;2.30;;;;;;;24.08;56.88;100359.97;2092697;28;20083;-78
2022/07/27 01:07:22;;;;;;;5.00;2.45;;;;;;;24.09;56.82;100360.84;2088633;28;20045;-79
2022/07/27 01:08:45;;;;;;;6.20;2.50;;;;;;;24.11;56.48;100353.53;2093146;28;20045;-78
2022/07/27 01:10:07;;;;;;;7.25;2.85;;;;;;;24.13;56.56;100357.91;2077296;28;20128;-79
2022/07/27 01:11:29;;;;;;;7.18;2.80;;;;;;;24.13;56.68;100352.53;2083189;28;20207;-78
2022/07/27 01:12:51;;;;;;;6.47;2.78;;;;;;;24.15;56.63;100353.34;2094146;28;20568;-77
2022/07/27 01:14:15;;;;;;;6.05;2.10;;;;;;;24.13;56.32;100354.34;2094097;28;20157;-79
2022/07/27 01:15:38;;;;;;;4.80;2.40;;;;;;;24.11;56.32;100349.00;2102472;28;20040;-77
2022/07/27 01:17:01;;;;;;;6.55;2.67;;;;;;;24.08;56.47;100349.16;2088087;28;20072;-77
2022/07/27 01:18:29;;;;;;;5.10;2.35;;;;;;;24.09;56.30;100347.34;2089442;28;20074;-78
2022/07/27 01:19:52;;;;;;;8.35;2.20;;;;;;;24.10;55.93;100341.84;2082740;28;20106;-79
2022/07/27 01:21:14;;;;;;;4.75;2.50;;;;;;;24.11;55.77;100345.44;2082832;28;20048;-77
2022/07/27 01:22:38;;;;;;;6.50;2.58;;;;;;;24.13;55.20;100351.63;2079840;28;20496;-78
2022/07/27 01:24:01;;;;;;;7.32;2.60;;;;;;;24.07;55.41;100346.53;2085716;28;20485;-78
2022/07/27 01:25:23;;;;;;;4.30;2.60;;;;;;;24.03;55.50;100353.88;2090653;28;20079;-78
2022/07/27 01:26:46;;;;;;;5.75;2.78;;;;;;;24.02;55.27;100351.28;2085583;28;20049;-79
2022/07/27 01:28:08;;;;;;;5.20;2.67;;;;;;;23.99;55.06;100349.59;2082955;28;20059;-77
2022/07/27 01:29:32;;;;;;;4.88;2.50;;;;;;;23.97;55.21;100348.78;2099338;28;20048;-78
2022/07/27 01:30:56;;;;;;;3.40;2.20;;;;;;;23.97;55.39;100345.19;2095757;28;20123;-77
2022/07/27 01:32:19;;;;;;;8.13;3.95;;;;;;;23.96;55.29;100354.25;2092428;28;20091;-78
2022/07/27 01:33:41;;;;;;;5.18;2.50;;;;;;;23.94;55.20;100348.06;2093088;28;20052;-78
2022/07/27 01:35:03;;;;;;;5.07;2.38;;;;;;;23.93;55.25;100354.38;2093736;28;20076;-77
2022/07/27 01:36:25;;;;;;;6.50;2.83;;;;;;;23.90;55.02;100344.59;2085309;28;20045;-78
2022/07/27 01:37:49;;;;;;;5.20;2.08;;;;;;;23.90;55.15;100349.13;2091261;28;20436;-78
2022/07/27 01:39:12;;;;;;;6.63;2.85;;;;;;;23.87;55.05;100346.56;2087141;28;20065;-78
2022/07/27 01:40:35;;;;;;;9.15;3.10;;;;;;;23.81;55.18;100348.63;2091013;28;20056;-77
2022/07/27 01:41:58;;;;;;;6.90;2.70;;;;;;;23.79;55.42;100344.22;2094068;28;20500;-78
2022/07/27 01:43:21;;;;;;;6.57;2.55;;;;;;;23.79;55.22;100349.63;2091817;28;20098;-78
2022/07/27 01:44:44;;;;;;;5.28;2.60;;;;;;;23.76;55.18;100341.69;2102175;28;20064;-78
2022/07/27 01:46:05;;;;;;;5.22;2.80;;;;;;;23.70;55.60;100342.81;2091704;28;20048;-78
2022/07/27 01:47:27;;;;;;;6.45;2.67;;;;;;;23.67;55.57;100345.66;2102342;28;20147;-79
2022/07/27 01:48:49;;;;;;;6.78;3.15;;;;;;;23.63;55.85;100345.88;2096271;28;20050;-78
2022/07/27 01:50:11;;;;;;;6.55;2.55;;;;;;;23.60;55.65;100346.88;2102090;28;20051;-78
2022/07/27 01:51:33;;;;;;;6.53;2.47;;;;;;;23.57;55.80;100340.72;2095527;28;20052;-78
2022/07/27 01:52:57;;;;;;;5.68;2.30;;;;;;;23.56;55.97;100347.09;2093544;28;20036;-78
2022/07/27 01:54:19;;;;;;;7.43;2.90;;;;;;;23.55;55.89;100345.34;2093624;28;20450;-78
2022/07/27 01:55:41;;;;;;;7.32;2.95;;;;;;;23.54;56.05;100339.06;2085817;28;20052;-78
2022/07/27 01:57:04;;;;;;;5.65;2.80;;;;;;;23.42;56.02;100347.66;2093509;28;20567;-79
2022/07/27 01:58:27;;;;;;;6.35;2.50;;;;;;;23.27;56.37;100340.25;2093513;28;20147;-78
2022/07/27 01:59:48;;;;;;;5.30;2.40;;;;;;;23.24;56.27;100345.75;2077566;28;20053;-78
2022/07/27 02:01:11;;;;;;;5.85;2.53;;;;;;;23.19;56.08;100339.69;2084214;28;20037;-78
2022/07/27 02:02:32;;;;;;;6.57;2.35;;;;;;;23.08;56.09;100347.38;2082858;28;20056;-78
2022/07/27 02:03:55;;;;;;;7.65;2.92;;;;;;;23.04;56.06;100343.91;2091045;28;20143;-78
2022/07/27 02:05:17;;;;;;;4.35;2.30;;;;;;;23.07;55.90;100345.59;2093898;28;20044;-78
2022/07/27 02:06:39;;;;;;;9.77;2.42;;;;;;;23.14;55.55;100347.09;2094780;28;20056;-79
2022/07/27 02:08:03;;;;;;;6.25;2.45;;;;;;;23.17;55.37;100347.84;2092919;28;20075;-78
2022/07/27 02:09:25;;;;;;;8.57;2.75;;;;;;;23.20;55.38;100341.44;2093563;28;20048;-78
2022/07/27 02:12:38;;;;;;;5.88;2.90;;;;;;;23.18;55.24;100343.31;2063293;28;20077;-79
2022/07/27 02:14:00;;;;;;;7.93;3.35;;;;;;;23.16;55.44;100342.53;2052956;28;20050;-78
2022/07/27 02:15:26;;;;;;;6.82;3.17;;;;;;;23.14;55.55;100334.50;2090505;28;20048;-78
2022/07/27 02:16:47;;;;;;;6.20;2.50;;;;;;;23.12;55.73;100349.84;2086212;28;20582;-79
2022/07/27 02:18:10;;;;;;;8.55;2.72;;;;;;;23.10;55.77;100342.81;2098754;28;20097;-78
2022/07/27 02:19:33;;;;;;;5.10;2.85;;;;;;;23.09;55.81;100343.72;2096186;28;20048;-78
2022/07/27 02:20:55;;;;;;;7.50;2.97;;;;;;;23.08;55.71;100345.56;2096171;28;20128;-78
2022/07/27 02:22:18;;;;;;;5.20;2.55;;;;;;;23.09;55.71;100341.91;2096422;28;20049;-79
2022/07/27 02:23:41;;;;;;;5.65;2.83;;;;;;;23.12;55.32;100341.78;2085987;28;20072;-78
2022/07/27 02:25:05;;;;;;;7.15;2.85;;;;;;;23.15;55.26;100338.09;2092395;28;20048;-78
2022/07/27 02:26:28;;;;;;;9.18;2.70;;;;;;;23.17;54.96;100337.06;2087050;28;20053;-78
2022/07/27 02:27:51;;;;;;;5.60;2.60;;;;;;;23.20;54.56;100341.44;2092632;28;20531;-78
2022/07/27 02:29:13;;;;;;;9.43;2.97;;;;;;;23.22;54.27;100334.19;2095152;28;20060;-78
2022/07/27 02:30:35;;;;;;;3.92;2.47;;;;;;;23.25;54.25;100334.91;2087222;28;20045;-78
2022/07/27 02:31:57;;;;;;;4.85;2.80;;;;;;;23.28;53.96;100336.63;2100340;28;20083;-77
2022/07/27 02:33:19;;;;;;;4.45;2.80;;;;;;;23.30;53.79;100332.03;2089481;28;20045;-78
2022/07/27 02:34:42;;;;;;;5.07;2.58;;;;;;;23.31;53.67;100329.25;2099262;28;20047;-78
2022/07/27 02:36:04;;;;;;;5.05;2.42;;;;;;;23.33;53.57;100321.13;2097210;28;20408;-78
2022/07/27 02:37:26;;;;;;;;;;;;;;;23.29;53.50;100319.50;2094342;28;20439;-77
2022/07/27 02:38:49;;;;;;;7.05;3.13;;;;;;;23.28;53.52;100321.31;2094472;28;20354;-78
2022/07/27 02:40:14;;;;;;;7.85;2.92;;;;;;;23.25;53.65;100316.06;2093701;28;20086;-78
2022/07/27 02:41:37;;;;;;;7.30;3.00;;;;;;;23.24;53.71;100314.31;2095063;28;20045;-77
2022/07/27 02:42:59;;;;;;;5.70;2.67;;;;;;;23.29;53.44;100316.81;2086776;28;20531;-77
2022/07/27 02:44:21;;;;;;;5.57;2.83;;;;;;;23.32;52.97;100317.53;2089458;28;20048;-79
2022/07/27 02:45:44;;;;;;;3.90;2.28;;;;;;;23.36;52.92;100316.50;2097922;28;20040;-77
2022/07/27 02:47:06;;;;;;;6.90;3.08;;;;;;;23.35;52.96;100311.16;2095181;28;20110;-77
2022/07/27 02:48:29;;;;;;;5.43;2.83;;;;;;;23.37;52.84;100314.63;2094661;28;20107;-77
2022/07/27 02:49:51;;;;;;;6.07;2.55;;;;;;;23.37;52.92;100320.03;2095083;28;20091;-79
2022/07/27 02:51:13;;;;;;;4.47;2.30;;;;;;;23.36;52.92;100316.50;2103118;28;20040;-78
2022/07/27 02:52:35;;;;;;;7.13;3.28;;;;;;;23.37;52.69;100312.81;2082117;28;20048;-78
2022/07/27 02:54:00;;;;;;;6.18;2.90;;;;;;;23.37;52.81;100314.63;2095098;28;20036;-78
2022/07/27 02:55:21;;;;;;;4.43;2.47;;;;;;;23.37;52.77;100306.56;2080696;28;20060;-78
2022/07/27 02:56:44;;;;;;;5.93;2.53;;;;;;;23.36;52.89;100321.00;2089499;28;20052;-78
2022/07/27 02:58:07;;;;;;;5.93;2.65;;;;;;;23.36;52.62;100315.59;2091303;28;20052;-78
2022/07/27 02:59:29;;;;;;;6.03;2.50;;;;;;;23.37;52.36;100311.94;2086460;28;20077;-77
2022/07/27 03:00:52;;;;;;;4.78;2.20;;;;;;;23.37;52.55;100314.63;2100454;28;20863;-78
2022/07/27 03:02:13;;;;;;;5.38;2.47;;;;;;;23.42;51.84;100315.34;2089342;28;20049;-77
2022/07/27 03:03:38;;;;;;;6.95;2.58;;;;;;;23.47;51.70;100307.94;2091785;28;20052;-78
2022/07/27 03:05:01;;;;;;;6.97;2.65;;;;;;;23.52;51.38;100310.44;2095063;28;20041;-77
2022/07/27 03:06:23;;;;;;;4.72;2.70;;;;;;;23.58;51.01;100310.16;2089275;28;20056;-78
2022/07/27 03:07:46;;;;;;;4.88;2.88;;;;;;;23.64;50.82;100302.66;2093286;28;20064;-77
2022/07/27 03:09:11;;;;;;;5.78;2.55;;;;;;;23.68;50.45;100301.59;2091101;28;20044;-77
2022/07/27 03:10:33;;;;;;;4.75;2.45;;;;;;;23.68;50.44;100301.59;2086820;28;20076;-78
2022/07/27 03:11:56;;;;;;;6.60;2.88;;;;;;;23.65;50.90;100307.09;2099862;28;20139;-77
2022/07/27 03:13:17;;;;;;;10.85;3.47;;;;;;;23.57;51.12;100309.28;2088065;28;20449;-78
2022/07/27 03:14:40;;;;;;;5.68;2.92;;;;;;;23.47;51.53;100304.34;2091657;28;20723;-77
2022/07/27 03:16:02;;;;;;;7.18;2.72;;;;;;;23.43;51.81;100314.41;2094539;28;20040;-78
2022/07/27 03:17:24;;;;;;;5.85;2.80;;;;;;;23.40;51.95;100301.94;2094457;28;20464;-78
2022/07/27 03:18:46;;;;;;;6.25;1.95;;;;;;;23.39;51.82;100294.78;2094332;28;20542;-78
2022/07/27 03:20:10;;;;;;;7.70;2.75;;;;;;;23.44;51.56;100297.25;2080035;28;20045;-78
2022/07/27 03:21:32;;;;;;;4.57;2.85;;;;;;;23.49;51.36;100297.09;2092717;28;20097;-78
2022/07/27 03:22:55;;;;;;;6.63;2.90;;;;;;;23.53;51.09;100302.28;2104245;28;20036;-77
2022/07/27 03:24:19;;;;;;;4.85;2.58;;;;;;;23.53;51.18;100296.88;2096957;28;20068;-78
2022/07/27 03:25:40;;;;;;;7.50;2.75;;;;;;;23.50;51.45;100296.16;2103299;28;20051;-78
2022/07/27 03:27:03;;;;;;;7.63;3.17;;;;;;;23.42;51.69;100300.03;2096064;28;20538;-79
2022/07/27 03:28:24;;;;;;;6.97;3.00;;;;;;;23.41;51.94;100300.09;2102938;28;20051;-77
2022/07/27 03:29:46;;;;;;;7.30;2.72;;;;;;;23.38;52.00;100302.91;2096819;28;20459;-78
2022/07/27 03:31:09;;;;;;;6.47;3.08;;;;;;;23.37;52.08;100295.78;2103064;28;20047;-78
2022/07/27 03:32:31;;;;;;;5.97;2.75;;;;;;;23.35;52.19;100293.19;2097164;28;20080;-79
2022/07/27 03:33:54;;;;;;;5.95;3.45;;;;;;;23.35;52.15;100293.19;2103066;28;20063;-78
2022/07/27 03:35:16;;;;;;;9.43;2.50;;;;;;;23.37;52.06;100296.66;2088924;28;20508;-80
2022/07/27 03:36:39;;;;;;;6.35;2.45;;;;;;;23.37;51.79;100298.47;2091094;28;20148;-79
2022/07/27 03:38:02;;;;;;;4.55;2.40;;;;;;;23.30;51.83;100294.31;2086573;28;20048;-79
2022/07/27 03:39:25;;;;;;;6.07;2.78;;;;;;;23.35;51.48;100293.19;2090537;28;20071;-79
2022/07/27 03:40:47;;;;;;;6.65;2.90;;;;;;;23.43;51.53;100300.94;2085746;28;20052;-77
2022/07/27 03:42:09;;;;;;;4.38;2.45;;;;;;;23.51;51.43;100296.06;2091065;28;20501;-78
2022/07/27 03:43:31;;;;;;;5.65;3.47;;;;;;;23.62;51.18;100296.50;2085775;28;20057;-79
2022/07/27 03:44:54;;;;;;;7.78;2.88;;;;;;;23.69;51.10;100295.25;2091836;28;20135;-78
2022/07/27 03:46:16;;;;;;;9.05;2.83;;;;;;;23.59;51.21;100293.03;2100569;28;20032;-79
2022/07/27 03:47:37;;;;;;;7.78;2.75;;;;;;;23.54;51.34;100292.38;2095404;28;20098;-79
2022/07/27 03:49:00;;;;;;;5.32;2.47;;;;;;;23.61;51.32;100294.72;2086449;28;20136;-79
2022/07/27 03:50:23;;;;;;;8.65;2.80;;;;;;;23.70;51.04;100291.59;2092433;28;20049;-78
2022/07/27 03:51:45;;;;;;;4.97;2.55;;;;;;;23.78;50.92;100293.94;2094248;28;20511;-79
2022/07/27 03:53:08;;;;;;;6.45;2.50;;;;;;;23.84;50.73;100296.34;2084167;28;20490;-78
2022/07/27 03:54:32;;;;;;;7.28;2.72;;;;;;;23.95;50.84;100296.75;2090845;28;20041;-78
2022/07/27 03:55:54;;;;;;;7.63;2.55;;;;;;;24.09;50.85;100296.09;2094565;28;20045;-79
2022/07/27 03:57:16;;;;;;;3.72;1.88;;;;;;;24.11;50.78;100295.06;2086355;28;20068;-78
2022/07/27 03:58:38;;;;;;;3.47;2.20;;;;;;;24.12;50.56;100293.25;2083368;28;20044;-78
2022/07/27 04:00:01;;;;;;;8.38;3.13;;;;;;;24.24;49.99;100300.78;2091440;28;20040;-77
2022/07/27 04:01:22;;;;;;;7.25;2.97;;;;;;;24.39;49.42;100296.47;2093184;28;20446;-78
2022/07/27 04:02:45;;;;;;;6.03;2.42;;;;;;;24.50;49.52;100295.00;2094269;28;20048;-78
2022/07/27 04:04:06;;;;;;;6.88;2.78;;;;;;;24.61;49.25;100295.31;2086289;28;20041;-79
2022/07/27 04:05:29;;;;;;;8.50;2.50;;;;;;;24.75;48.88;100289.22;2091895;28;20052;-78
2022/07/27 04:06:51;;;;;;;5.55;2.65;;;;;;;24.92;48.89;100286.59;2094057;28;20448;-79
2022/07/27 04:08:14;;;;;;;5.93;2.60;;;;;;;25.06;48.58;100296.69;2092637;28;20037;-78
2022/07/27 04:09:36;;;;;;;7.78;2.45;;;;;;;25.20;48.43;100294.16;2086131;28;20049;-79
2022/07/27 04:10:59;;;;;;;5.72;1.88;;;;;;;25.26;48.20;100287.56;2083537;28;20090;-79
2022/07/27 04:12:22;;;;;;;3.80;2.40;;;;;;;25.26;47.73;100293.84;2100251;28;20063;-79
2022/07/27 04:13:45;;;;;;;8.55;2.28;;;;;;;25.39;47.33;100292.25;2096592;28;20131;-78
2022/07/27 04:15:09;;;;;;;3.50;2.25;;;;;;;25.58;47.20;100294.88;2093856;28;20044;-79
2022/07/27 04:16:33;;;;;;;6.30;2.28;;;;;;;25.75;46.97;100294.81;2102448;28;20052;-78
2022/07/27 04:17:57;;;;;;;4.93;1.95;;;;;;;25.96;46.65;100298.19;2087723;28;20041;-78
2022/07/27 04:19:19;;;;;;;4.00;2.25;;;;;;;26.16;46.13;100297.94;2083427;28;20049;-78
2022/07/27 04:20:42;;;;;;;5.50;2.38;;;;;;;26.35;46.38;100291.50;2090168;28;20052;-79
2022/07/27 04:22:05;;;;;;;4.88;2.33;;;;;;;26.48;46.16;100303.38;2089393;28;20044;-78
2022/07/27 04:23:27;;;;;;;5.03;2.30;;;;;;;26.61;45.87;100298.13;2088324;28;20132;-79
2022/07/27 04:24:52;;;;;;;6.07;2.03;;;;;;;26.69;45.23;100304.88;2077761;28;20505;-78
2022/07/27 04:26:14;;;;;;;7.72;2.30;;;;;;;26.75;44.89;100296.38;2092226;28;20044;-79
2022/07/27 04:27:37;;;;;;;4.63;1.85;;;;;;;26.87;44.72;100295.66;2088599;28;20078;-78
2022/07/27 04:28:59;;;;;;;6.70;2.25;;;;;;;27.05;44.21;100295.53;2086090;28;20056;-78
2022/07/27 04:30:23;;;;;;;7.60;2.25;;;;;;;27.22;43.63;100301.72;2089035;28;20095;-78
2022/07/27 04:31:45;;;;;;;6.30;2.10;;;;;;;27.35;43.23;100301.84;2093011;28;20048;-78
2022/07/27 04:33:06;;;;;;;7.50;2.25;;;;;;;27.54;42.72;100302.47;2091952;28;20072;-78
2022/07/27 04:34:29;;;;;;;4.53;2.40;;;;;;;27.74;42.49;100303.94;2102394;28;20043;-78
2022/07/27 04:35:52;;;;;;;4.63;1.77;;;;;;;27.93;41.82;100303.66;2095893;28;20045;-78
2022/07/27 04:37:14;;;;;;;3.97;1.80;;;;;;;28.09;41.64;100294.41;2085947;28;20081;-79
2022/07/27 04:38:36;;;;;;;3.42;1.80;;;;;;;28.24;41.26;100292.59;2091590;28;20071;-78
2022/07/27 04:40:01;;;;;;;3.53;1.98;;;;;;;28.40;41.09;100296.06;2094284;28;20053;-79
2022/07/27 04:41:24;;;;;;;3.03;1.85;;;;;;;28.54;40.94;100301.47;2085072;28;20041;-79
2022/07/27 04:42:47;;;;;;;8.30;2.72;;;;;;;28.68;41.07;100300.56;2083447;28;20052;-79
2022/07/27 04:44:09;;;;;;;2.53;1.77;;;;;;;28.82;41.11;100302.34;2093479;28;20437;-79
2022/07/27 04:45:31;;;;;;;5.05;2.13;;;;;;;28.94;40.66;100298.84;2085920;28;20064;-78
2022/07/27 04:46:54;;;;;;;2.83;1.77;;;;;;;29.07;40.61;100293.44;2091600;28;20040;-78
2022/07/27 04:48:15;;;;;;;6.35;1.92;;;;;;;29.25;40.45;100301.19;2084795;28;20110;-78
2022/07/27 04:49:38;;;;;;;5.03;1.90;;;;;;;29.45;39.97;100296.25;2090798;28;20455;-78
2022/07/27 04:51:01;;;;;;;5.57;2.05;;;;;;;29.65;39.74;100299.28;2093748;28;20051;-79
2022/07/27 04:52:23;;;;;;;4.20;2.00;;;;;;;29.85;38.96;100303.31;2085318;28;20048;-80
2022/07/27 04:53:48;;;;;;;5.15;1.75;;;;;;;30.01;38.66;100298.53;2100270;28;20048;-79
2022/07/27 04:55:13;;;;;;;6.03;2.10;;;;;;;30.24;37.93;100296.88;2087571;28;20083;-79
2022/07/27 04:56:37;;;;;;;4.68;1.95;;;;;;;30.43;37.18;100308.13;2092320;28;20048;-80
2022/07/27 04:58:00;;;;;;;5.40;2.10;;;;;;;30.65;37.02;100303.84;2077333;28;20065;-79
2022/07/27 04:59:22;;;;;;;4.78;2.00;;;;;;;30.84;35.69;100309.66;2081016;28;20111;-79
2022/07/27 05:00:44;;;;;;;11.98;2.38;;;;;;;31.01;35.32;100309.22;2091442;28;20033;-79
2022/07/27 05:02:07;;;;;;;5.75;2.25;;;;;;;31.24;34.95;100304.78;2084115;28;20044;-79
2022/07/27 05:03:30;;;;;;;4.97;1.92;;;;;;;31.51;35.04;100316.25;2091795;28;20135;-79
2022/07/27 05:04:51;;;;;;;6.22;1.80;;;;;;;31.76;34.21;100312.50;2088224;28;20451;-79
2022/07/27 05:06:13;;;;;;;6.57;2.00;;;;;;;32.00;33.80;100307.78;2094273;28;20033;-79
2022/07/27 05:07:35;;;;;;;7.70;1.90;;;;;;;32.24;32.89;100304.06;2080274;28;20110;-79
2022/07/27 05:08:58;;;;;;;6.97;2.22;;;;;;;32.43;32.53;100310.63;2091319;28;20115;-77
2022/07/27 05:10:22;;;;;;;6.50;2.13;;;;;;;32.54;31.92;100304.28;2091651;28;20489;-77
2022/07/27 05:11:45;;;;;;;5.72;2.10;;;;;;;32.65;30.99;100315.19;2094273;28;20044;-77
2022/07/27 05:13:07;;;;;;;5.90;2.08;;;;;;;32.81;30.47;100315.69;2093890;28;20056;-78
2022/07/27 05:14:28;;;;;;;5.28;2.28;;;;;;;32.96;30.23;100310.78;2094132;28;20492;-78
2022/07/27 05:15:51;;;;;;;4.45;2.17;;;;;;;33.10;30.25;100307.72;2084732;28;20057;-78
2022/07/27 05:17:14;;;;;;;4.22;2.00;;;;;;;33.36;30.07;100311.00;2099201;28;20040;-78
2022/07/27 05:18:36;;;;;;;4.20;1.75;;;;;;;33.62;29.78;100305.97;2096645;28;20040;-77
2022/07/27 05:20:00;;;;;;;4.07;2.00;;;;;;;33.85;29.85;100307.59;2102571;28;20048;-78
2022/07/27 05:21:23;;;;;;;5.13;1.77;;;;;;;34.14;29.56;100315.06;2088150;28;20049;-78
2022/07/27 05:22:45;;;;;;;7.03;2.20;;;;;;;34.30;29.35;100307.25;2091511;28;20074;-78
2022/07/27 05:24:08;;;;;;;4.03;1.73;;;;;;;34.47;28.98;100309.31;2085544;28;20504;-79
2022/07/27 05:25:33;;;;;;;3.15;1.85;;;;;;;34.66;28.77;100309.34;2098555;28;20178;-79
2022/07/27 05:26:54;;;;;;;5.97;2.22;;;;;;;34.77;28.97;100317.50;2088332;28;20061;-78
2022/07/27 05:28:17;;;;;;;5.32;1.80;;;;;;;34.86;29.24;100306.66;2093998;28;20045;-79
2022/07/27 05:29:39;;;;;;;7.45;2.35;;;;;;;34.89;29.27;100320.97;2093992;28;20056;-79
2022/07/27 05:31:02;;;;;;;3.45;2.00;;;;;;;35.02;29.63;100310.59;2093649;28;20069;-80
2022/07/27 05:32:24;;;;;;;3.22;1.80;;;;;;;35.09;29.51;100308.13;2085781;28;20421;-79
2022/07/27 05:33:47;;;;;;;5.80;2.13;;;;;;;35.17;29.58;100322.03;2093877;28;20060;-78
2022/07/27 05:35:10;;;;;;;5.60;2.05;;;;;;;35.23;29.53;100310.50;2101167;28;20059;-77
2022/07/27 05:36:33;;;;;;;10.20;2.28;;;;;;;35.30;29.19;100319.88;2088303;28;20041;-79
2022/07/27 05:37:56;;;;;;;5.50;2.00;;;;;;;35.34;28.82;100315.81;2077241;28;20143;-78
2022/07/27 05:39:19;;;;;;;5.05;1.98;;;;;;;35.47;28.52;100316.38;2091327;28;20151;-79
2022/07/27 05:40:44;;;;;;;4.60;2.25;;;;;;;35.68;28.03;100312.59;2088052;28;20083;-78
2022/07/27 05:42:07;;;;;;;3.72;2.00;;;;;;;35.78;28.08;100327.19;2092072;28;20056;-79
2022/07/27 05:43:29;;;;;;;5.25;2.15;;;;;;;35.94;28.22;100321.94;2084888;28;20049;-79
2022/07/27 05:44:55;;;;;;;5.28;2.35;;;;;;;36.08;28.02;100324.22;2091020;28;20516;-79
2022/07/27 05:46:17;;;;;;;3.53;2.08;;;;;;;36.22;27.50;100322.91;2094262;28;20048;-77
2022/07/27 05:47:40;;;;;;;3.78;1.65;;;;;;;36.25;26.89;100322.56;2093848;28;20140;-78
2022/07/27 05:49:03;;;;;;;3.10;1.95;;;;;;;36.28;26.98;100325.03;2085344;28;20115;-78
2022/07/27 05:50:26;;;;;;;2.10;1.60;;;;;;;36.43;26.13;100325.41;2083285;28;20140;-77
2022/07/27 05:51:48;;;;;;;6.50;1.70;;;;;;;36.56;26.08;100329.50;2091328;28;20135;-77
2022/07/27 05:53:11;;;;;;;4.13;1.77;;;;;;;36.71;26.15;100324.38;2093601;28;20044;-77
2022/07/27 05:54:34;;;;;;;3.05;1.77;;;;;;;36.68;26.39;100335.72;2094025;28;20091;-78
2022/07/27 05:55:58;;;;;;;5.10;1.70;;;;;;;36.76;26.63;100329.44;2085696;28;20068;-78
2022/07/27 05:57:20;;;;;;;3.60;1.98;;;;;;;36.83;26.68;100328.63;2090590;28;20044;-77
2022/07/27 05:58:43;;;;;;;5.20;2.00;;;;;;;36.87;26.58;100335.59;2093398;28;20616;-79
2022/07/27 06:00:07;;;;;;;4.80;1.80;;;;;;;36.96;26.66;100331.88;2095403;28;20109;-78
2022/07/27 06:01:34;;;;;;;8.43;2.40;;;;;;;37.12;26.75;100328.47;2096130;28;20070;-78
2022/07/27 06:02:56;;;;;;;5.05;1.92;;;;;;;37.24;26.66;100327.19;2095236;28;20056;-77
2022/07/27 06:04:19;;;;;;;3.90;2.10;;;;;;;37.30;26.79;100333.97;2087386;28;20056;-79
2022/07/27 06:05:41;;;;;;;6.35;2.05;;;;;;;37.29;26.97;100332.22;2086678;28;20580;-78
2022/07/27 06:08:43;;;;;;;11.73;2.20;;;;;;;37.29;26.81;100329.47;2089589;28;20139;-79
2022/07/27 06:10:07;;;;;;;3.22;1.92;;;;;;;37.27;26.91;100337.03;2093068;28;20090;-79
2022/07/27 06:11:31;;;;;;;2.63;1.80;;;;;;;37.35;26.91;100334.38;2095470;28;20125;-79
2022/07/27 06:12:54;;;;;;;4.25;2.25;;;;;;;37.41;26.81;100344.75;2094488;28;20056;-79
2022/07/27 06:14:16;;;;;;;4.05;2.03;;;;;;;37.42;26.71;100338.19;2095580;28;20036;-79
2022/07/27 06:15:39;;;;;;;4.13;1.98;;;;;;;37.42;26.77;100343.69;2088340;28;20132;-79
2022/07/27 06:17:01;;;;;;;4.38;1.70;;;;;;;37.53;26.81;100343.47;2095540;28;20048;-80
2022/07/27 06:18:23;;;;;;;5.10;2.80;;;;;;;37.51;26.43;100335.38;2089939;28;20068;-79
2022/07/27 06:19:45;;;;;;;5.88;2.00;;;;;;;37.50;26.06;100343.78;2086767;28;20128;-81
2022/07/27 06:21:08;;;;;;;4.55;1.92;;;;;;;37.49;25.82;100339.28;2078841;28;20053;-80
2022/07/27 06:22:30;;;;;;;4.43;2.33;;;;;;;37.43;25.69;100338.03;2093038;28;20045;-79
2022/07/27 06:23:54;;;;;;;4.13;2.30;;;;;;;37.43;25.69;100340.78;2089571;28;20078;-79
2022/07/27 06:25:18;;;;;;;3.05;1.70;;;;;;;37.47;25.60;100344.13;2095231;28;20063;-79
2022/07/27 06:26:42;;;;;;;4.65;1.77;;;;;;;37.39;25.61;100342.16;2089474;28;20076;-80
2022/07/27 06:28:06;;;;;;;5.07;1.98;;;;;;;37.26;25.70;100332.56;2093321;28;20045;-80